sensor_id;sensor_type;location;lat;lon;timestamp;P1;durP1;ratioP1;P2;durP2;ratioP2
47383;SDS011;33129;52.232;5.192;2022-12-07T00:02:53;11.37;;;6.00;;
47383;SDS011;33129;52.232;5.192;2022-12-07T00:06:13;10.53;;;5.37;;
47383;SDS011;33129;52.232;5.192;2022-12-07T00:09:32;9.67;;;4.70;;
47383;SDS011;33129;52.232;5.192;2022-12-07T00:12:51;12.90;;;5.10;;
47383;SDS011;33129;52.232;5.192;2022-12-07T00:16:14;9.67;;;4.50;;
47383;SDS011;33129;52.232;5.192;2022-12-07T00:19:34;11.53;;;4.10;;
47383;SDS011;33129;52.232;5.192;2022-12-07T00:22:52;10.93;;;4.47;;
47383;SDS011;33129;52.232;5.192;2022-12-07T00:26:12;13.60;;;4.03;;
47383;SDS011;33129;52.232;5.192;2022-12-07T00:29:31;9.53;;;4.73;;
47383;SDS011;33129;52.232;5.192;2022-12-07T00:32:50;7.80;;;3.60;;
47383;SDS011;33129;52.232;5.192;2022-12-07T00:36:09;9.80;;;3.90;;
47383;SDS011;33129;52.232;5.192;2022-12-07T00:39:30;12.98;;;4.55;;
47383;SDS011;33129;52.232;5.192;2022-12-07T00:42:48;10.43;;;4.03;;
47383;SDS011;33129;52.232;5.192;2022-12-07T00:46:07;10.60;;;4.00;;
47383;SDS011;33129;52.232;5.192;2022-12-07T00:49:26;9.07;;;3.83;;
47383;SDS011;33129;52.232;5.192;2022-12-07T00:52:44;8.30;;;3.47;;
47383;SDS011;33129;52.232;5.192;2022-12-07T00:56:06;8.03;;;3.83;;
47383;SDS011;33129;52.232;5.192;2022-12-07T00:59:29;10.07;;;4.10;;
47383;SDS011;33129;52.232;5.192;2022-12-07T01:02:48;9.63;;;4.37;;
47383;SDS011;33129;52.232;5.192;2022-12-07T01:06:06;12.13;;;4.50;;
47383;SDS011;33129;52.232;5.192;2022-12-07T01:09:25;9.47;;;4.03;;
47383;SDS011;33129;52.232;5.192;2022-12-07T01:12:43;9.13;;;3.43;;
47383;SDS011;33129;52.232;5.192;2022-12-07T01:16:03;7.00;;;3.20;;
47383;SDS011;33129;52.232;5.192;2022-12-07T01:19:23;8.43;;;3.53;;
47383;SDS011;33129;52.232;5.192;2022-12-07T01:22:41;7.87;;;3.27;;
47383;SDS011;33129;52.232;5.192;2022-12-07T01:26:02;10.60;;;4.00;;
47383;SDS011;33129;52.232;5.192;2022-12-07T01:29:22;9.15;;;4.05;;
47383;SDS011;33129;52.232;5.192;2022-12-07T01:32:40;6.93;;;3.67;;
47383;SDS011;33129;52.232;5.192;2022-12-07T01:36:08;8.80;;;4.03;;
47383;SDS011;33129;52.232;5.192;2022-12-07T01:39:31;7.60;;;3.75;;
47383;SDS011;33129;52.232;5.192;2022-12-07T01:42:50;10.10;;;4.43;;
47383;SDS011;33129;52.232;5.192;2022-12-07T01:46:27;11.13;;;4.40;;
47383;SDS011;33129;52.232;5.192;2022-12-07T01:49:46;9.67;;;4.30;;
47383;SDS011;33129;52.232;5.192;2022-12-07T01:53:08;9.37;;;2.87;;
47383;SDS011;33129;52.232;5.192;2022-12-07T01:56:27;8.50;;;2.40;;
47383;SDS011;33129;52.232;5.192;2022-12-07T01:59:48;8.97;;;2.63;;
47383;SDS011;33129;52.232;5.192;2022-12-07T02:03:11;6.67;;;2.30;;
47383;SDS011;33129;52.232;5.192;2022-12-07T02:06:36;8.90;;;2.90;;
47383;SDS011;33129;52.232;5.192;2022-12-07T02:09:55;7.73;;;2.90;;
47383;SDS011;33129;52.232;5.192;2022-12-07T02:13:21;8.60;;;2.73;;
47383;SDS011;33129;52.232;5.192;2022-12-07T02:28:07;8.20;;;2.60;;
47383;SDS011;33129;52.232;5.192;2022-12-07T02:31:36;12.40;;;2.73;;
47383;SDS011;33129;52.232;5.192;2022-12-07T02:35:46;5.73;;;2.40;;
47383;SDS011;33129;52.232;5.192;2022-12-07T02:38:56;6.70;;;2.33;;
47383;SDS011;33129;52.232;5.192;2022-12-07T02:42:25;8.83;;;2.20;;
47383;SDS011;33129;52.232;5.192;2022-12-07T02:46:08;8.80;;;2.10;;
47383;SDS011;33129;52.232;5.192;2022-12-07T02:49:32;7.90;;;2.17;;
47383;SDS011;33129;52.232;5.192;2022-12-07T02:52:51;7.03;;;2.37;;
47383;SDS011;33129;52.232;5.192;2022-12-07T03:03:19;8.53;;;2.60;;
47383;SDS011;33129;52.232;5.192;2022-12-07T03:06:42;8.05;;;1.98;;
47383;SDS011;33129;52.232;5.192;2022-12-07T03:14:11;8.63;;;2.00;;
47383;SDS011;33129;52.232;5.192;2022-12-07T03:17:41;7.83;;;1.70;;
47383;SDS011;33129;52.232;5.192;2022-12-07T03:21:09;8.97;;;2.10;;
47383;SDS011;33129;52.232;5.192;2022-12-07T03:24:43;6.03;;;1.67;;
47383;SDS011;33129;52.232;5.192;2022-12-07T03:28:09;9.10;;;2.50;;
47383;SDS011;33129;52.232;5.192;2022-12-07T03:31:33;7.87;;;1.93;;
47383;SDS011;33129;52.232;5.192;2022-12-07T03:42:51;5.67;;;2.00;;
47383;SDS011;33129;52.232;5.192;2022-12-07T03:53:18;5.77;;;2.53;;
47383;SDS011;33129;52.232;5.192;2022-12-07T03:56:49;9.00;;;2.30;;
47383;SDS011;33129;52.232;5.192;2022-12-07T04:00:09;8.73;;;2.63;;
47383;SDS011;33129;52.232;5.192;2022-12-07T04:03:28;8.07;;;1.90;;
47383;SDS011;33129;52.232;5.192;2022-12-07T04:06:50;8.80;;;2.08;;
47383;SDS011;33129;52.232;5.192;2022-12-07T04:10:09;6.60;;;1.70;;
47383;SDS011;33129;52.232;5.192;2022-12-07T04:13:28;7.33;;;2.10;;
47383;SDS011;33129;52.232;5.192;2022-12-07T04:16:47;9.73;;;2.37;;
47383;SDS011;33129;52.232;5.192;2022-12-07T04:20:07;8.60;;;1.83;;
47383;SDS011;33129;52.232;5.192;2022-12-07T04:23:26;8.60;;;1.90;;
47383;SDS011;33129;52.232;5.192;2022-12-07T04:26:44;10.17;;;2.23;;
47383;SDS011;33129;52.232;5.192;2022-12-07T04:30:03;6.73;;;1.60;;
47383;SDS011;33129;52.232;5.192;2022-12-07T04:33:22;7.37;;;1.50;;
47383;SDS011;33129;52.232;5.192;2022-12-07T04:36:41;7.07;;;1.40;;
47383;SDS011;33129;52.232;5.192;2022-12-07T04:40:00;7.00;;;1.30;;
47383;SDS011;33129;52.232;5.192;2022-12-07T04:43:18;11.50;;;1.70;;
47383;SDS011;33129;52.232;5.192;2022-12-07T04:46:39;5.83;;;1.73;;
47383;SDS011;33129;52.232;5.192;2022-12-07T04:49:57;5.87;;;1.97;;
47383;SDS011;33129;52.232;5.192;2022-12-07T04:53:16;8.63;;;1.37;;
47383;SDS011;33129;52.232;5.192;2022-12-07T04:56:34;6.90;;;1.50;;
47383;SDS011;33129;52.232;5.192;2022-12-07T04:59:53;6.53;;;1.57;;
47383;SDS011;33129;52.232;5.192;2022-12-07T05:03:11;7.77;;;1.83;;
47383;SDS011;33129;52.232;5.192;2022-12-07T05:06:29;5.70;;;1.40;;
47383;SDS011;33129;52.232;5.192;2022-12-07T05:09:48;9.90;;;1.70;;
47383;SDS011;33129;52.232;5.192;2022-12-07T05:13:06;5.87;;;1.93;;
47383;SDS011;33129;52.232;5.192;2022-12-07T05:16:25;9.30;;;2.10;;
47383;SDS011;33129;52.232;5.192;2022-12-07T05:19:43;9.60;;;2.47;;
47383;SDS011;33129;52.232;5.192;2022-12-07T05:23:01;6.27;;;1.97;;
47383;SDS011;33129;52.232;5.192;2022-12-07T05:26:20;7.83;;;2.00;;
47383;SDS011;33129;52.232;5.192;2022-12-07T05:29:39;7.17;;;2.00;;
47383;SDS011;33129;52.232;5.192;2022-12-07T05:32:57;7.73;;;1.80;;
47383;SDS011;33129;52.232;5.192;2022-12-07T05:36:16;6.77;;;2.17;;
47383;SDS011;33129;52.232;5.192;2022-12-07T05:39:34;7.77;;;2.07;;
47383;SDS011;33129;52.232;5.192;2022-12-07T05:42:52;11.60;;;2.40;;
47383;SDS011;33129;52.232;5.192;2022-12-07T05:46:11;9.33;;;1.83;;
47383;SDS011;33129;52.232;5.192;2022-12-07T05:49:29;13.30;;;2.27;;
47383;SDS011;33129;52.232;5.192;2022-12-07T05:52:47;7.67;;;2.20;;
47383;SDS011;33129;52.232;5.192;2022-12-07T05:56:06;8.80;;;2.10;;
47383;SDS011;33129;52.232;5.192;2022-12-07T05:59:24;7.90;;;1.90;;
47383;SDS011;33129;52.232;5.192;2022-12-07T06:02:43;7.33;;;1.97;;
47383;SDS011;33129;52.232;5.192;2022-12-07T06:06:02;7.27;;;2.30;;
47383;SDS011;33129;52.232;5.192;2022-12-07T06:09:21;6.67;;;2.30;;
47383;SDS011;33129;52.232;5.192;2022-12-07T06:12:40;10.37;;;2.30;;
47383;SDS011;33129;52.232;5.192;2022-12-07T06:15:58;7.40;;;2.37;;
47383;SDS011;33129;52.232;5.192;2022-12-07T06:19:17;10.47;;;3.00;;
47383;SDS011;33129;52.232;5.192;2022-12-07T06:22:35;8.07;;;2.20;;
47383;SDS011;33129;52.232;5.192;2022-12-07T06:25:54;9.63;;;2.60;;
47383;SDS011;33129;52.232;5.192;2022-12-07T06:29:12;13.87;;;2.77;;
47383;SDS011;33129;52.232;5.192;2022-12-07T06:32:33;7.40;;;1.80;;
47383;SDS011;33129;52.232;5.192;2022-12-07T06:35:52;12.40;;;2.30;;
47383;SDS011;33129;52.232;5.192;2022-12-07T06:39:11;9.67;;;2.40;;
47383;SDS011;33129;52.232;5.192;2022-12-07T06:42:30;8.33;;;2.00;;
47383;SDS011;33129;52.232;5.192;2022-12-07T06:45:48;12.83;;;2.67;;
47383;SDS011;33129;52.232;5.192;2022-12-07T06:49:06;7.90;;;2.10;;
47383;SDS011;33129;52.232;5.192;2022-12-07T06:52:27;8.17;;;2.20;;
47383;SDS011;33129;52.232;5.192;2022-12-07T06:59:04;13.47;;;2.93;;
47383;SDS011;33129;52.232;5.192;2022-12-07T07:02:24;9.50;;;2.43;;
47383;SDS011;33129;52.232;5.192;2022-12-07T07:05:43;6.30;;;1.87;;
47383;SDS011;33129;52.232;5.192;2022-12-07T07:09:02;9.77;;;3.10;;
47383;SDS011;33129;52.232;5.192;2022-12-07T07:12:21;12.80;;;3.33;;
47383;SDS011;33129;52.232;5.192;2022-12-07T07:15:39;11.93;;;3.50;;
47383;SDS011;33129;52.232;5.192;2022-12-07T07:18:57;9.50;;;3.10;;
47383;SDS011;33129;52.232;5.192;2022-12-07T07:22:15;5.00;;;2.23;;
47383;SDS011;33129;52.232;5.192;2022-12-07T07:25:34;9.33;;;3.23;;
47383;SDS011;33129;52.232;5.192;2022-12-07T07:28:52;9.57;;;3.53;;
47383;SDS011;33129;52.232;5.192;2022-12-07T07:32:10;10.13;;;3.93;;
47383;SDS011;33129;52.232;5.192;2022-12-07T07:35:29;11.27;;;3.37;;
47383;SDS011;33129;52.232;5.192;2022-12-07T07:38:48;12.23;;;3.77;;
47383;SDS011;33129;52.232;5.192;2022-12-07T07:42:07;10.97;;;4.10;;
47383;SDS011;33129;52.232;5.192;2022-12-07T07:45:26;14.00;;;3.50;;
47383;SDS011;33129;52.232;5.192;2022-12-07T07:48:44;8.80;;;3.20;;
47383;SDS011;33129;52.232;5.192;2022-12-07T07:52:04;12.33;;;3.53;;
47383;SDS011;33129;52.232;5.192;2022-12-07T07:55:23;10.63;;;3.70;;
47383;SDS011;33129;52.232;5.192;2022-12-07T07:58:41;8.30;;;2.93;;
47383;SDS011;33129;52.232;5.192;2022-12-07T08:02:00;15.63;;;3.80;;
47383;SDS011;33129;52.232;5.192;2022-12-07T08:05:18;8.43;;;4.10;;
47383;SDS011;33129;52.232;5.192;2022-12-07T08:08:36;11.63;;;4.90;;
47383;SDS011;33129;52.232;5.192;2022-12-07T08:11:55;8.13;;;2.90;;
47383;SDS011;33129;52.232;5.192;2022-12-07T08:15:32;10.37;;;2.80;;
47383;SDS011;33129;52.232;5.192;2022-12-07T08:18:50;10.17;;;3.17;;
47383;SDS011;33129;52.232;5.192;2022-12-07T08:22:08;10.10;;;2.33;;
47383;SDS011;33129;52.232;5.192;2022-12-07T08:25:27;10.33;;;2.63;;
47383;SDS011;33129;52.232;5.192;2022-12-07T08:28:46;6.13;;;1.97;;
47383;SDS011;33129;52.232;5.192;2022-12-07T08:32:04;8.03;;;2.20;;
47383;SDS011;33129;52.232;5.192;2022-12-07T08:35:23;9.70;;;2.30;;
47383;SDS011;33129;52.232;5.192;2022-12-07T08:38:42;7.77;;;2.63;;
47383;SDS011;33129;52.232;5.192;2022-12-07T08:42:00;11.13;;;2.60;;
47383;SDS011;33129;52.232;5.192;2022-12-07T08:45:19;11.33;;;2.47;;
47383;SDS011;33129;52.232;5.192;2022-12-07T08:48:48;10.13;;;2.57;;
47383;SDS011;33129;52.232;5.192;2022-12-07T08:52:11;6.23;;;2.30;;
47383;SDS011;33129;52.232;5.192;2022-12-07T08:55:29;6.47;;;2.10;;
47383;SDS011;33129;52.232;5.192;2022-12-07T08:58:48;5.83;;;1.83;;
47383;SDS011;33129;52.232;5.192;2022-12-07T09:02:06;5.27;;;1.80;;
47383;SDS011;33129;52.232;5.192;2022-12-07T09:05:25;6.27;;;2.23;;
47383;SDS011;33129;52.232;5.192;2022-12-07T09:08:45;5.10;;;1.67;;
47383;SDS011;33129;52.232;5.192;2022-12-07T09:12:05;8.63;;;1.90;;
47383;SDS011;33129;52.232;5.192;2022-12-07T09:15:26;7.57;;;2.00;;
47383;SDS011;33129;52.232;5.192;2022-12-07T09:18:47;7.80;;;2.10;;
47383;SDS011;33129;52.232;5.192;2022-12-07T09:22:07;8.13;;;2.60;;
47383;SDS011;33129;52.232;5.192;2022-12-07T09:25:26;6.10;;;2.00;;
47383;SDS011;33129;52.232;5.192;2022-12-07T09:28:45;7.93;;;2.20;;
47383;SDS011;33129;52.232;5.192;2022-12-07T09:32:04;10.93;;;2.40;;
47383;SDS011;33129;52.232;5.192;2022-12-07T09:35:23;6.23;;;2.10;;
47383;SDS011;33129;52.232;5.192;2022-12-07T09:38:38;5.50;;;1.67;;
47383;SDS011;33129;52.232;5.192;2022-12-07T09:41:56;4.83;;;1.70;;
47383;SDS011;33129;52.232;5.192;2022-12-07T09:45:18;6.10;;;2.27;;
47383;SDS011;33129;52.232;5.192;2022-12-07T09:48:43;7.33;;;2.20;;
47383;SDS011;33129;52.232;5.192;2022-12-07T09:52:03;6.87;;;2.37;;
47383;SDS011;33129;52.232;5.192;2022-12-07T09:55:40;6.33;;;1.93;;
47383;SDS011;33129;52.232;5.192;2022-12-07T09:59:00;5.93;;;2.00;;
47383;SDS011;33129;52.232;5.192;2022-12-07T10:02:27;7.37;;;2.03;;
47383;SDS011;33129;52.232;5.192;2022-12-07T10:05:47;4.87;;;2.17;;
47383;SDS011;33129;52.232;5.192;2022-12-07T10:12:52;9.20;;;2.23;;
47383;SDS011;33129;52.232;5.192;2022-12-07T10:27:32;7.73;;;2.63;;
47383;SDS011;33129;52.232;5.192;2022-12-07T10:31:02;7.53;;;1.60;;
47383;SDS011;33129;52.232;5.192;2022-12-07T10:34:41;6.17;;;2.00;;
47383;SDS011;33129;52.232;5.192;2022-12-07T10:38:00;9.40;;;1.80;;
47383;SDS011;33129;52.232;5.192;2022-12-07T10:41:24;7.00;;;1.87;;
47383;SDS011;33129;52.232;5.192;2022-12-07T10:45:06;8.90;;;2.73;;
47383;SDS011;33129;52.232;5.192;2022-12-07T10:48:42;6.13;;;2.10;;
47383;SDS011;33129;52.232;5.192;2022-12-07T10:52:18;9.23;;;2.73;;
47383;SDS011;33129;52.232;5.192;2022-12-07T11:03:42;10.00;;;2.20;;
47383;SDS011;33129;52.232;5.192;2022-12-07T11:07:55;7.57;;;1.80;;
47383;SDS011;33129;52.232;5.192;2022-12-07T11:12:03;5.53;;;1.80;;
47383;SDS011;33129;52.232;5.192;2022-12-07T11:20:01;7.97;;;2.67;;
47383;SDS011;33129;52.232;5.192;2022-12-07T11:23:56;11.77;;;2.30;;
47383;SDS011;33129;52.232;5.192;2022-12-07T11:27:52;6.97;;;2.33;;
47383;SDS011;33129;52.232;5.192;2022-12-07T11:31:36;6.43;;;1.83;;
47383;SDS011;33129;52.232;5.192;2022-12-07T11:38:43;7.57;;;1.80;;
47383;SDS011;33129;52.232;5.192;2022-12-07T11:42:29;7.83;;;1.90;;
47383;SDS011;33129;52.232;5.192;2022-12-07T11:46:07;5.40;;;1.85;;
47383;SDS011;33129;52.232;5.192;2022-12-07T11:56:49;6.70;;;1.60;;
47383;SDS011;33129;52.232;5.192;2022-12-07T12:00:14;6.07;;;2.03;;
47383;SDS011;33129;52.232;5.192;2022-12-07T12:03:42;6.70;;;1.63;;
47383;SDS011;33129;52.232;5.192;2022-12-07T12:07:10;6.10;;;1.90;;
47383;SDS011;33129;52.232;5.192;2022-12-07T12:10:46;5.13;;;1.77;;
47383;SDS011;33129;52.232;5.192;2022-12-07T12:21:47;8.80;;;2.30;;
47383;SDS011;33129;52.232;5.192;2022-12-07T12:25:29;6.57;;;1.23;;
47383;SDS011;33129;52.232;5.192;2022-12-07T12:29:01;3.63;;;1.10;;
47383;SDS011;33129;52.232;5.192;2022-12-07T12:32:30;4.20;;;1.10;;
47383;SDS011;33129;52.232;5.192;2022-12-07T12:59:17;2.97;;;1.10;;
47383;SDS011;33129;52.232;5.192;2022-12-07T13:02:53;4.97;;;1.40;;
47383;SDS011;33129;52.232;5.192;2022-12-07T13:06:18;6.57;;;1.67;;
47383;SDS011;33129;52.232;5.192;2022-12-07T13:10:01;4.80;;;1.40;;
47383;SDS011;33129;52.232;5.192;2022-12-07T13:16:55;7.23;;;2.53;;
47383;SDS011;33129;52.232;5.192;2022-12-07T13:20:42;9.27;;;1.87;;
47383;SDS011;33129;52.232;5.192;2022-12-07T13:24:07;6.77;;;1.80;;
47383;SDS011;33129;52.232;5.192;2022-12-07T13:27:50;9.18;;;2.33;;
47383;SDS011;33129;52.232;5.192;2022-12-07T13:31:39;8.23;;;1.83;;
47383;SDS011;33129;52.232;5.192;2022-12-07T13:35:26;8.33;;;1.83;;
47383;SDS011;33129;52.232;5.192;2022-12-07T13:38:52;5.20;;;1.73;;
47383;SDS011;33129;52.232;5.192;2022-12-07T13:45:46;8.00;;;1.73;;
47383;SDS011;33129;52.232;5.192;2022-12-07T13:49:53;6.70;;;1.37;;
47383;SDS011;33129;52.232;5.192;2022-12-07T13:53:17;5.30;;;1.90;;
47383;SDS011;33129;52.232;5.192;2022-12-07T13:56:36;6.03;;;1.70;;
47383;SDS011;33129;52.232;5.192;2022-12-07T13:59:55;10.20;;;2.03;;
47383;SDS011;33129;52.232;5.192;2022-12-07T14:06:52;9.33;;;1.50;;
47383;SDS011;33129;52.232;5.192;2022-12-07T14:13:56;6.63;;;1.60;;
47383;SDS011;33129;52.232;5.192;2022-12-07T14:17:20;9.40;;;1.80;;
47383;SDS011;33129;52.232;5.192;2022-12-07T14:20:51;4.73;;;1.57;;
47383;SDS011;33129;52.232;5.192;2022-12-07T14:24:41;4.65;;;1.60;;
47383;SDS011;33129;52.232;5.192;2022-12-07T14:28:28;8.37;;;1.70;;
47383;SDS011;33129;52.232;5.192;2022-12-07T14:31:52;7.10;;;1.70;;
47383;SDS011;33129;52.232;5.192;2022-12-07T14:38:42;5.73;;;1.37;;
47383;SDS011;33129;52.232;5.192;2022-12-07T14:42:00;3.77;;;1.60;;
47383;SDS011;33129;52.232;5.192;2022-12-07T14:45:28;5.50;;;2.00;;
47383;SDS011;33129;52.232;5.192;2022-12-07T14:48:47;6.20;;;1.70;;
47383;SDS011;33129;52.232;5.192;2022-12-07T14:52:05;6.23;;;1.80;;
47383;SDS011;33129;52.232;5.192;2022-12-07T14:55:31;3.47;;;1.23;;
47383;SDS011;33129;52.232;5.192;2022-12-07T14:58:49;4.80;;;1.50;;
47383;SDS011;33129;52.232;5.192;2022-12-07T15:02:09;5.90;;;1.30;;
47383;SDS011;33129;52.232;5.192;2022-12-07T15:05:30;4.97;;;1.70;;
47383;SDS011;33129;52.232;5.192;2022-12-07T15:08:48;3.50;;;1.47;;
47383;SDS011;33129;52.232;5.192;2022-12-07T15:12:06;5.73;;;2.00;;
47383;SDS011;33129;52.232;5.192;2022-12-07T15:15:45;6.00;;;2.30;;
47383;SDS011;33129;52.232;5.192;2022-12-07T15:19:14;5.13;;;1.60;;
47383;SDS011;33129;52.232;5.192;2022-12-07T15:22:42;5.73;;;2.03;;
47383;SDS011;33129;52.232;5.192;2022-12-07T15:26:00;6.03;;;2.00;;
47383;SDS011;33129;52.232;5.192;2022-12-07T15:29:18;14.13;;;2.50;;
47383;SDS011;33129;52.232;5.192;2022-12-07T15:32:37;6.97;;;1.90;;
47383;SDS011;33129;52.232;5.192;2022-12-07T15:35:55;6.60;;;2.50;;
47383;SDS011;33129;52.232;5.192;2022-12-07T15:39:13;8.10;;;3.20;;
47383;SDS011;33129;52.232;5.192;2022-12-07T15:42:32;8.40;;;3.20;;
47383;SDS011;33129;52.232;5.192;2022-12-07T15:46:09;9.73;;;3.30;;
47383;SDS011;33129;52.232;5.192;2022-12-07T15:49:29;7.30;;;1.90;;
47383;SDS011;33129;52.232;5.192;2022-12-07T15:52:48;4.73;;;1.93;;
47383;SDS011;33129;52.232;5.192;2022-12-07T15:56:07;9.23;;;2.47;;
47383;SDS011;33129;52.232;5.192;2022-12-07T15:59:26;7.77;;;2.67;;
47383;SDS011;33129;52.232;5.192;2022-12-07T16:02:45;10.93;;;2.67;;
47383;SDS011;33129;52.232;5.192;2022-12-07T16:06:04;5.03;;;2.53;;
47383;SDS011;33129;52.232;5.192;2022-12-07T16:09:22;7.77;;;2.70;;
47383;SDS011;33129;52.232;5.192;2022-12-07T16:12:40;8.20;;;2.30;;
47383;SDS011;33129;52.232;5.192;2022-12-07T16:16:02;9.27;;;2.93;;
47383;SDS011;33129;52.232;5.192;2022-12-07T16:19:21;9.37;;;2.97;;
47383;SDS011;33129;52.232;5.192;2022-12-07T16:22:39;6.43;;;2.70;;
47383;SDS011;33129;52.232;5.192;2022-12-07T16:26:12;10.60;;;3.37;;
47383;SDS011;33129;52.232;5.192;2022-12-07T16:29:31;13.13;;;3.80;;
47383;SDS011;33129;52.232;5.192;2022-12-07T16:32:50;10.70;;;4.23;;
47383;SDS011;33129;52.232;5.192;2022-12-07T16:36:09;9.53;;;3.87;;
47383;SDS011;33129;52.232;5.192;2022-12-07T16:39:29;10.00;;;4.77;;
47383;SDS011;33129;52.232;5.192;2022-12-07T16:42:47;12.17;;;4.63;;
47383;SDS011;33129;52.232;5.192;2022-12-07T16:46:06;7.13;;;3.77;;
47383;SDS011;33129;52.232;5.192;2022-12-07T16:49:25;8.13;;;4.23;;
47383;SDS011;33129;52.232;5.192;2022-12-07T16:52:43;11.30;;;5.20;;
47383;SDS011;33129;52.232;5.192;2022-12-07T16:56:02;10.50;;;5.23;;
47383;SDS011;33129;52.232;5.192;2022-12-07T16:59:21;10.40;;;4.10;;
47383;SDS011;33129;52.232;5.192;2022-12-07T17:02:40;10.67;;;5.07;;
47383;SDS011;33129;52.232;5.192;2022-12-07T17:05:58;17.60;;;11.73;;
47383;SDS011;33129;52.232;5.192;2022-12-07T17:09:16;12.70;;;7.20;;
47383;SDS011;33129;52.232;5.192;2022-12-07T17:12:36;11.20;;;6.50;;
47383;SDS011;33129;52.232;5.192;2022-12-07T17:16:16;12.03;;;5.60;;
47383;SDS011;33129;52.232;5.192;2022-12-07T17:19:34;9.18;;;4.03;;
47383;SDS011;33129;52.232;5.192;2022-12-07T17:22:54;7.87;;;3.00;;
47383;SDS011;33129;52.232;5.192;2022-12-07T17:26:16;10.53;;;4.63;;
47383;SDS011;33129;52.232;5.192;2022-12-07T17:29:40;9.80;;;4.23;;
47383;SDS011;33129;52.232;5.192;2022-12-07T17:32:58;10.63;;;2.73;;
47383;SDS011;33129;52.232;5.192;2022-12-07T17:36:18;6.40;;;2.00;;
47383;SDS011;33129;52.232;5.192;2022-12-07T17:39:38;8.07;;;1.90;;
47383;SDS011;33129;52.232;5.192;2022-12-07T17:42:56;4.97;;;1.43;;
47383;SDS011;33129;52.232;5.192;2022-12-07T17:46:15;5.77;;;1.60;;
47383;SDS011;33129;52.232;5.192;2022-12-07T17:49:35;6.67;;;3.07;;
47383;SDS011;33129;52.232;5.192;2022-12-07T17:52:36;5.70;;;1.87;;
47383;SDS011;33129;52.232;5.192;2022-12-07T17:55:55;7.93;;;2.20;;
47383;SDS011;33129;52.232;5.192;2022-12-07T17:59:12;6.67;;;2.33;;
47383;SDS011;33129;52.232;5.192;2022-12-07T18:02:31;12.20;;;3.93;;
47383;SDS011;33129;52.232;5.192;2022-12-07T18:05:49;12.00;;;5.50;;
47383;SDS011;33129;52.232;5.192;2022-12-07T18:09:07;9.40;;;4.50;;
47383;SDS011;33129;52.232;5.192;2022-12-07T18:12:25;8.50;;;4.53;;
47383;SDS011;33129;52.232;5.192;2022-12-07T18:16:12;9.63;;;5.70;;
47383;SDS011;33129;52.232;5.192;2022-12-07T18:19:32;13.57;;;6.40;;
47383;SDS011;33129;52.232;5.192;2022-12-07T18:22:50;13.70;;;5.50;;
47383;SDS011;33129;52.232;5.192;2022-12-07T18:26:09;9.10;;;4.93;;
47383;SDS011;33129;52.232;5.192;2022-12-07T18:29:29;12.33;;;4.73;;
47383;SDS011;33129;52.232;5.192;2022-12-07T18:32:48;11.27;;;3.83;;
47383;SDS011;33129;52.232;5.192;2022-12-07T18:36:07;10.60;;;4.33;;
47383;SDS011;33129;52.232;5.192;2022-12-07T18:39:26;9.37;;;4.47;;
47383;SDS011;33129;52.232;5.192;2022-12-07T18:42:44;9.80;;;4.80;;
47383;SDS011;33129;52.232;5.192;2022-12-07T18:46:16;9.13;;;4.73;;
47383;SDS011;33129;52.232;5.192;2022-12-07T18:49:36;13.23;;;5.33;;
47383;SDS011;33129;52.232;5.192;2022-12-07T18:53:04;13.80;;;6.20;;
47383;SDS011;33129;52.232;5.192;2022-12-07T18:56:24;15.27;;;6.47;;
47383;SDS011;33129;52.232;5.192;2022-12-07T18:59:43;12.43;;;6.60;;
47383;SDS011;33129;52.232;5.192;2022-12-07T19:03:01;13.97;;;6.73;;
47383;SDS011;33129;52.232;5.192;2022-12-07T19:06:20;14.87;;;8.00;;
47383;SDS011;33129;52.232;5.192;2022-12-07T19:09:38;15.43;;;8.67;;
47383;SDS011;33129;52.232;5.192;2022-12-07T19:12:57;13.77;;;7.20;;
47383;SDS011;33129;52.232;5.192;2022-12-07T19:16:15;13.67;;;6.73;;
47383;SDS011;33129;52.232;5.192;2022-12-07T19:19:39;11.90;;;5.43;;
47383;SDS011;33129;52.232;5.192;2022-12-07T19:23:02;13.53;;;6.27;;
47383;SDS011;33129;52.232;5.192;2022-12-07T19:26:20;12.73;;;5.60;;
47383;SDS011;33129;52.232;5.192;2022-12-07T19:29:40;10.23;;;5.60;;
47383;SDS011;33129;52.232;5.192;2022-12-07T19:32:58;10.97;;;6.50;;
47383;SDS011;33129;52.232;5.192;2022-12-07T19:36:17;10.77;;;5.87;;
47383;SDS011;33129;52.232;5.192;2022-12-07T19:39:36;11.00;;;6.07;;
47383;SDS011;33129;52.232;5.192;2022-12-07T19:42:56;18.97;;;9.50;;
47383;SDS011;33129;52.232;5.192;2022-12-07T19:46:14;12.13;;;6.47;;
47383;SDS011;33129;52.232;5.192;2022-12-07T19:49:33;10.33;;;5.73;;
47383;SDS011;33129;52.232;5.192;2022-12-07T19:52:49;9.17;;;5.37;;
47383;SDS011;33129;52.232;5.192;2022-12-07T19:56:12;22.00;;;10.10;;
47383;SDS011;33129;52.232;5.192;2022-12-07T19:59:33;9.60;;;5.43;;
47383;SDS011;33129;52.232;5.192;2022-12-07T20:02:50;9.20;;;3.80;;
47383;SDS011;33129;52.232;5.192;2022-12-07T20:06:09;9.37;;;3.87;;
47383;SDS011;33129;52.232;5.192;2022-12-07T20:09:30;10.82;;;5.75;;
47383;SDS011;33129;52.232;5.192;2022-12-07T20:12:48;21.90;;;10.23;;
47383;SDS011;33129;52.232;5.192;2022-12-07T20:16:06;13.83;;;6.50;;
47383;SDS011;33129;52.232;5.192;2022-12-07T20:19:25;11.43;;;4.60;;
47383;SDS011;33129;52.232;5.192;2022-12-07T20:22:43;13.80;;;6.33;;
47383;SDS011;33129;52.232;5.192;2022-12-07T20:26:05;9.80;;;4.60;;
47383;SDS011;33129;52.232;5.192;2022-12-07T20:29:25;11.07;;;6.10;;
47383;SDS011;33129;52.232;5.192;2022-12-07T20:32:44;9.23;;;5.60;;
47383;SDS011;33129;52.232;5.192;2022-12-07T20:36:02;13.30;;;5.77;;
47383;SDS011;33129;52.232;5.192;2022-12-07T20:39:21;11.00;;;6.27;;
47383;SDS011;33129;52.232;5.192;2022-12-07T20:42:40;13.40;;;6.63;;
47383;SDS011;33129;52.232;5.192;2022-12-07T20:45:59;12.03;;;5.97;;
47383;SDS011;33129;52.232;5.192;2022-12-07T20:49:17;13.20;;;5.90;;
47383;SDS011;33129;52.232;5.192;2022-12-07T20:52:39;14.17;;;6.03;;
47383;SDS011;33129;52.232;5.192;2022-12-07T20:55:57;11.70;;;6.10;;
47383;SDS011;33129;52.232;5.192;2022-12-07T20:59:16;13.43;;;6.57;;
47383;SDS011;33129;52.232;5.192;2022-12-07T21:02:38;11.43;;;6.15;;
47383;SDS011;33129;52.232;5.192;2022-12-07T21:05:59;11.43;;;5.57;;
47383;SDS011;33129;52.232;5.192;2022-12-07T21:09:19;12.50;;;5.37;;
47383;SDS011;33129;52.232;5.192;2022-12-07T21:12:37;9.13;;;5.37;;
47383;SDS011;33129;52.232;5.192;2022-12-07T21:15:55;12.97;;;5.50;;
47383;SDS011;33129;52.232;5.192;2022-12-07T21:19:13;12.50;;;5.40;;
47383;SDS011;33129;52.232;5.192;2022-12-07T21:22:32;11.13;;;5.20;;
47383;SDS011;33129;52.232;5.192;2022-12-07T21:25:50;14.03;;;5.07;;
47383;SDS011;33129;52.232;5.192;2022-12-07T21:29:12;11.38;;;5.20;;
47383;SDS011;33129;52.232;5.192;2022-12-07T21:32:33;12.00;;;5.03;;
47383;SDS011;33129;52.232;5.192;2022-12-07T21:35:51;9.40;;;4.17;;
47383;SDS011;33129;52.232;5.192;2022-12-07T21:39:10;8.23;;;4.00;;
47383;SDS011;33129;52.232;5.192;2022-12-07T21:45:50;9.60;;;4.27;;
47383;SDS011;33129;52.232;5.192;2022-12-07T21:49:13;12.30;;;4.00;;
47383;SDS011;33129;52.232;5.192;2022-12-07T21:52:32;10.30;;;4.27;;
47383;SDS011;33129;52.232;5.192;2022-12-07T21:55:50;7.87;;;3.37;;
47383;SDS011;33129;52.232;5.192;2022-12-07T21:59:10;10.07;;;3.30;;
47383;SDS011;33129;52.232;5.192;2022-12-07T22:02:33;9.20;;;3.87;;
47383;SDS011;33129;52.232;5.192;2022-12-07T22:05:57;14.00;;;3.53;;
47383;SDS011;33129;52.232;5.192;2022-12-07T22:09:19;8.87;;;3.93;;
47383;SDS011;33129;52.232;5.192;2022-12-07T22:12:59;8.90;;;3.60;;
47383;SDS011;33129;52.232;5.192;2022-12-07T22:16:36;8.93;;;3.47;;
47383;SDS011;33129;52.232;5.192;2022-12-07T22:19:55;9.33;;;3.40;;
47383;SDS011;33129;52.232;5.192;2022-12-07T22:23:16;7.60;;;3.35;;
47383;SDS011;33129;52.232;5.192;2022-12-07T22:26:35;10.70;;;3.50;;